Flight Track Log - Related Links

Times and Time Zones

All times are in EDT time to prevent confusion due to time zone crossing. See the TRS587 flight status page for this flight to view local times or setup timezone preferences in your user account.

Time Position Orientation Groundspeed Altitude Reporting Facility
EDT Latitude Longitude Course Direction KTS MPH feet Rate Location/Type
Tue 11:39:47 AM 28.4000 -81.3000 213° Southwest 169 194 800  Level Orlando TRACON
Tue 11:41:06 AM 28.3333 -81.3500 213° Southwest 267 307 2,800 1,856 Climbing Orlando TRACON
Tue 11:42:06 AM 28.3333 -81.4333 270° West 263 303 5,100 2,250 Climbing Orlando TRACON
Tue 11:43:06 AM 28.3667 -81.5000 300° West 279 321 7,300 1,853 Climbing Orlando TRACON
Tue 11:45:17 AM 28.3947 -81.6819 280° West 296 341 11,000 1,539 Climbing Jacksonville Center
Tue 11:46:17 AM 28.3914 -81.7836 268° West 302 348 12,200 1,200 Climbing Jacksonville Center
Tue 11:47:17 AM 28.3778 -81.8969 262° West 338 389 13,400 1,350 Climbing Jacksonville Center
Tue 11:48:17 AM 28.3661 -82.0150 264° West 368 423 14,900 1,450 Climbing Jacksonville Center
Tue 11:49:17 AM 28.3481 -82.1403 261° West 390 449 16,300 1,400 Climbing Jacksonville Center
Tue 11:50:17 AM 28.3342 -82.2628 263° West 395 455 17,700 1,400 Climbing Jacksonville Center
Tue 11:51:17 AM 28.3992 -82.3711 304° West 470 541 19,100 1,400 Climbing Jacksonville Center
Tue 11:52:17 AM 28.4914 -82.4533 322° Northwest 438 504 20,500 1,350 Climbing Jacksonville Center
Tue 11:53:17 AM 28.6022 -82.5119 335° Northwest 427 491 21,800 1,350 Climbing Jacksonville Center
Tue 11:54:17 AM 28.7131 -82.5683 336° Northwest 427 491 23,200 1,350 Climbing Jacksonville Center
Tue 11:55:17 AM 28.8258 -82.6294 335° Northwest 439 505 24,500 1,750 Climbing Jacksonville Center
Tue 11:56:17 AM 28.9344 -82.6886 335° Northwest 444 511 26,700 1,700 Climbing Jacksonville Center
Tue 11:57:17 AM 29.0411 -82.7453 335° Northwest 439 505 27,900 1,200 Climbing Jacksonville Center
Tue 11:58:17 AM 29.1497 -82.8047 334° Northwest 434 499 29,100 1,050 Climbing Jacksonville Center
Tue 11:59:17 AM 29.2603 -82.8664 334° Northwest 429 494 30,000 700 Climbing Jacksonville Center
Tue 12:00:17 PM 29.3731 -82.9258 335° Northwest 429 494 30,500 700 Climbing Jacksonville Center
Tue 12:01:17 PM 29.5044 -83.0000 334° Northwest 454 522 31,400 750 Climbing Jacksonville Center
Tue 12:02:17 PM 29.6192 -83.0622 335° Northwest 463 533 32,000 300 Climbing Jacksonville Center
Tue 12:03:17 PM 29.7403 -83.1175 338° Northwest 467 537 32,000  Level Jacksonville Center
Tue 12:04:17 PM 29.8569 -83.1703 339° North 468 539 32,000  Level Jacksonville Center
Tue 12:05:17 PM 29.9781 -83.2283 337° Northwest 456 525 32,000  Level Jacksonville Center
Tue 12:06:17 PM 30.1011 -83.2839 339° North 456 525 32,000  Level Jacksonville Center
Tue 12:07:17 PM 30.2197 -83.3372 339° North 456 525 32,000  Level Jacksonville Center
Tue 12:08:17 PM 30.3406 -83.3956 337° Northwest 456 525 32,000  Level Jacksonville Center
Tue 12:09:17 PM 30.4617 -83.4517 338° Northwest 456 525 32,000  Level Jacksonville Center
Tue 12:10:17 PM 30.5803 -83.5078 338° Northwest 456 525 32,000  Level Jacksonville Center
Tue 12:11:17 PM 30.6989 -83.5667 337° Northwest 456 525 32,000  Level Jacksonville Center
Tue 12:12:17 PM 30.8156 -83.6183 339° North 456 525 32,000  Level Jacksonville Center
Tue 12:13:17 PM 30.9344 -83.6772 337° Northwest 456 525 32,000  Level Jacksonville Center
Tue 12:14:17 PM 31.0531 -83.7342 338° Northwest 456 525 32,000  Level Jacksonville Center
Tue 12:15:17 PM 31.1717 -83.7908 338° Northwest 456 525 32,000  Level Jacksonville Center
Tue 12:17:21 PM 31.4125 -83.9075 338° Northwest 477 549 32,000  Level Atlanta Center
Tue 12:18:21 PM 31.5317 -83.9633 338° Northwest 471 542 32,000  Level Atlanta Center
Tue 12:19:21 PM 31.6589 -83.9950 348° North 466 536 32,000  Level Atlanta Center
Tue 12:20:21 PM 31.7906 -84.0217 350° North 466 536 32,000  Level Atlanta Center
Tue 12:21:21 PM 31.9178 -84.0486 350° North 466 536 32,000  Level Atlanta Center
Tue 12:22:21 PM 32.0472 -84.0756 350° North 466 536 32,000  Level Atlanta Center
Tue 12:23:21 PM 32.1619 -84.1025 349° North 466 536 32,000  Level Atlanta Center
Tue 12:24:21 PM 32.2914 -84.1322 349° North 466 536 32,000  Level Atlanta Center
Tue 12:25:21 PM 32.4250 -84.1619 349° North 471 542 32,000  Level Atlanta Center
Tue 12:26:21 PM 32.5542 -84.1917 349° North 471 542 32,000  Level Atlanta Center
Tue 12:27:21 PM 32.6794 -84.2189 350° North 466 536 32,000  Level Atlanta Center
Tue 12:28:21 PM 32.8233 -84.2489 350° North 471 542 32,000 450 Level Atlanta Center
Tue 12:29:21 PM 32.9486 -84.2814 348° North 464 534 32,900 1,000 Climbing Atlanta Center
Tue 12:30:21 PM 33.0717 -84.3114 348° North 458 527 34,000 550 Climbing Atlanta Center
Tue 12:31:21 PM 33.1989 -84.3392 350° North 452 520 34,000  Level Atlanta Center
Tue 12:32:21 PM 33.3053 -84.3644 349° North 445 512 34,000  Level Atlanta Center
Tue 12:33:21 PM 33.4242 -84.3897 350° North 445 512 34,000  Level Atlanta Center
Tue 12:34:21 PM 33.5453 -84.4178 349° North 445 512 34,000  Level Atlanta Center
Tue 12:35:21 PM 33.6725 -84.4481 349° North 433 498 34,000  Level Atlanta Center
Tue 12:36:21 PM 33.7850 -84.4761 348° North 418 481 34,000  Level Atlanta Center
Tue 12:37:21 PM 33.9061 -84.5044 349° North 423 487 34,000  Level Atlanta Center
Tue 12:38:21 PM 34.0228 -84.5350 348° North 429 494 34,000  Level Atlanta Center
Tue 12:39:21 PM 34.1458 -84.5608 350° North 444 511 34,000  Level Atlanta Center
Tue 12:40:21 PM 34.2500 -84.5867 348° North 444 511 34,000  Level Atlanta Center
Tue 12:41:21 PM 34.3669 -84.6125 350° North 433 498 34,000  Level Atlanta Center
Tue 12:42:21 PM 34.4836 -84.6436 348° North 421 484 34,000  Level Atlanta Center
Tue 12:43:21 PM 34.5961 -84.6722 348° North 421 484 34,000  Level Atlanta Center
Tue 12:44:21 PM 34.7211 -84.7033 348° North 416 479 34,000  Level Atlanta Center
Tue 12:45:21 PM 34.8358 -84.7322 348° North 410 472 34,000  Level Atlanta Center
Tue 12:46:21 PM 34.9506 -84.7611 348° North 410 472 34,000  Level Atlanta Center
Tue 12:47:21 PM 35.0672 -84.7900 349° North 410 472 34,000  Level Atlanta Center
Tue 12:48:21 PM 35.1797 -84.8189 348° North 410 472 34,000  Level Atlanta Center
Tue 12:49:21 PM 35.2922 -84.8453 349° North 410 472 34,000  Level Atlanta Center
Tue 12:50:21 PM 35.4047 -84.8744 348° North 410 472 34,000  Level Atlanta Center
Tue 12:51:21 PM 35.5169 -84.9036 348° North 410 472 34,000  Level Atlanta Center
Tue 12:52:21 PM 35.6275 -84.9331 348° North 410 472 34,000  Level Atlanta Center
Tue 12:53:21 PM 35.7378 -84.9622 348° North 410 472 34,000  Level Atlanta Center
Tue 12:54:21 PM 35.8481 -84.9867 350° North 415 478 34,000  Level Atlanta Center
Tue 12:55:14 PM 35.9417 -85.0092 349° North 409 471 34,000  Level Indianapolis Center
Tue 12:56:16 PM 36.0556 -85.0392 348° North 406 467 34,000  Level Indianapolis Center
Tue 12:57:18 PM 36.1653 -85.0672 348° North 402 463 34,000  Level Indianapolis Center
Tue 12:58:20 PM 36.2761 -85.0953 348° North 403 464 34,000  Level Indianapolis Center
Tue 12:59:21 PM 36.3861 -85.1231 349° North 404 465 34,000  Level Indianapolis Center
Tue 01:00:23 PM 36.4961 -85.1522 348° North 404 465 34,000  Level Indianapolis Center
Tue 01:01:25 PM 36.6286 -85.1864 348° North 404 465 34,000  Level Indianapolis Center
Tue 01:02:27 PM 36.7375 -85.2144 348° North 401 461 34,000  Level Indianapolis Center
Tue 01:03:29 PM 36.8478 -85.2428 348° North 402 463 34,000  Level Indianapolis Center
Tue 01:04:30 PM 36.9569 -85.2717 348° North 401 461 34,000  Level Indianapolis Center
Tue 01:05:32 PM 37.0697 -85.3014 348° North 403 464 34,000  Level Indianapolis Center
Tue 01:06:34 PM 37.1783 -85.3311 348° North 400 460 34,000  Level Indianapolis Center
Tue 01:07:36 PM 37.2886 -85.3578 349° North 400 460 34,000  Level Indianapolis Center
Tue 01:08:38 PM 37.4144 -85.3933 347° North 396 456 34,000  Level Indianapolis Center
Tue 01:09:39 PM 37.5231 -85.4194 349° North 395 455 34,000  Level Indianapolis Center
Tue 01:10:41 PM 37.6328 -85.4400 352° North 396 456 34,000  Level Indianapolis Center
Tue 01:11:43 PM 37.7417 -85.4622 351° North 394 453 34,000  Level Indianapolis Center
Tue 01:12:45 PM 37.8614 -85.4878 350° North 397 457 34,000  Level Indianapolis Center
Tue 01:13:46 PM 37.9719 -85.5086 352° North 399 459 34,000  Level Indianapolis Center
Tue 01:14:48 PM 38.0808 -85.5247 353° North 399 459 34,000  Level Indianapolis Center
Tue 01:15:50 PM 38.1844 -85.4686 23° Northeast 404 465 34,000  Level Indianapolis Center
Tue 01:16:52 PM 38.2853 -85.4078 25° Northeast 401 461 34,000 -629 Level Indianapolis Center
Tue 01:17:54 PM 38.3883 -85.3464 25° Northeast 406 467 32,700 -976 Descending Indianapolis Center
Tue 01:18:55 PM 38.4939 -85.2986 20° North 415 478 32,000 -341 Descending Indianapolis Center
Tue 01:19:57 PM 38.6019 -85.3317 347° North 406 467 32,000 -484 Level Indianapolis Center
Tue 01:20:59 PM 38.7258 -85.3778 344° North 405 466 31,000 -1,415 Descending Indianapolis Center
Tue 01:22:00 PM 38.8342 -85.4167 344° North 406 467 29,100 -1,463 Descending Indianapolis Center
Tue 01:23:02 PM 38.9431 -85.4581 344° North 410 472 28,000 -532 Descending Indianapolis Center
Tue 01:24:04 PM 39.0506 -85.4972 344° North 404 465 28,000  Level Indianapolis Center
Tue 01:25:05 PM 39.1575 -85.5383 343° North 403 464 28,000  Level Indianapolis Center
Tue 01:26:07 PM 39.2869 -85.5856 344° North 404 465 28,000  Level Indianapolis Center
Tue 01:27:09 PM 39.3942 -85.6258 344° North 403 464 28,000 -244 Level Indianapolis Center
Tue 01:28:10 PM 39.5006 -85.6653 344° North 401 461 27,500 -732 Descending Indianapolis Center
Tue 01:29:12 PM 39.6056 -85.7053 344° North 397 457 26,500 -1,016 Descending Indianapolis Center
Tue 01:30:14 PM 39.7094 -85.7444 344° North 395 455 25,400 -1,171 Descending Indianapolis Center
Tue 01:31:15 PM 39.8311 -85.7914 343° North 386 444 24,100 -683 Descending Indianapolis Center
Tue 01:32:17 PM 39.9306 -85.8400 339° North 385 443 24,000 -48 Descending Indianapolis Center
Tue 01:33:19 PM 40.0319 -85.8931 338° Northwest 396 456 24,000  Level Indianapolis Center
Tue 01:34:20 PM 40.1331 -85.9458 338° Northwest 396 456 24,000 -375 Level Indianapolis Center
Tue 01:34:55 PM 40.1922 -85.9742 340° North 391 450 23,400 -1,237 Descending Chicago Center
Tue 01:35:57 PM 40.2894 -86.0261 338° Northwest 382 440 22,000 -677 Descending Chicago Center
Tue 01:36:59 PM 40.3861 -86.0781 338° Northwest 378 435 22,000 -194 Level Chicago Center
Tue 01:38:01 PM 40.5003 -86.1372 338° Northwest 376 433 21,600 -484 Descending Chicago Center
Tue 01:39:03 PM 40.5989 -86.1906 338° Northwest 377 434 21,000 -774 Descending Chicago Center
Tue 01:40:05 PM 40.7019 -86.2450 338° Northwest 375 432 20,000 -1,645 Descending Chicago Center
Tue 01:41:07 PM 40.7967 -86.2964 338° Northwest 368 423 17,600 -2,419 Descending Chicago Center
Tue 01:42:09 PM 40.8892 -86.3456 338° Northwest 360 414 15,000 -2,468 Descending Chicago Center
Tue 01:43:11 PM 40.9772 -86.3942 337° Northwest 347 399 12,500 -1,323 Descending Chicago Center
Tue 01:45:15 PM 41.1147 -86.5342 323° Northwest 309 356 10,900 -806 Descending Chicago Center
Tue 01:46:17 PM 41.1744 -86.6261 311° West 278 320 10,000 -435 Descending Chicago Center
Tue 01:47:19 PM 41.2244 -86.7039 311° West 276 318 10,000  Level Chicago Center
Tue 01:48:21 PM 41.2761 -86.7842 311° West 273 314 10,000 -581 Level Chicago Center
Tue 01:49:23 PM 41.3256 -86.8625 310° West 278 320 8,800 -1,210 Descending Chicago Center
Tue 01:50:25 PM 41.3739 -86.9375 311° West 271 312 7,500 -1,258 Descending Chicago Center
Tue 01:51:27 PM 41.4222 -87.0133 310° West 271 312 6,200 -726 Descending Chicago Center
Tue 01:52:29 PM 41.4378 -87.1089 282° West 276 318 6,000 -97 Descending Chicago Center
Tue 01:53:31 PM 41.4772 -87.2111 297° West 279 321 6,000  Level Chicago Center
Tue 01:54:33 PM 41.5189 -87.2925 304° West 269 310 6,000 -242 Level Chicago Center
Tue 01:55:35 PM 41.5594 -87.3753 303° West 268 308 5,500 -1,016 Descending Chicago Center
Tue 01:56:37 PM 41.5983 -87.4572 302° West 266 306 3,900 -774 Descending Chicago Center
Tue 01:57:39 PM 41.6328 -87.5400 299° West 262 302 3,900 -244 Level Chicago Center
Tue 01:58:40 PM 41.6836 -87.6083 315° West 235 270 3,400 -780 Descending Chicago Center
Tue 01:59:42 PM 41.7200 -87.6614 313° West 216 249 2,300 -919 Descending Chicago Center
Tue 02:00:44 PM 41.7522 -87.7064 314° West 194 223 1,500 -629 Descending Chicago Center
Tue 02:01:46 PM 41.7822 -87.7483 314° West 172 198 1,000 -484 Descending Chicago Center
Tue 02:03:00 PM 41.7833 -87.7500 14° North  Level FlightAware Approximate

Login

Don't have an account? Register now (free) for customized features, flight alerts, and more!